createdAt,value
2018-08-12T00:03:11.368Z,100854.39
2018-08-12T00:08:15.023Z,100846.85
2018-08-12T00:13:18.746Z,100853.39
2018-08-12T00:18:22.403Z,100850.44
2018-08-12T00:23:26.155Z,100850.00
2018-08-12T00:28:29.943Z,100857.27
2018-08-12T00:33:33.574Z,100847.41
2018-08-12T00:38:37.294Z,100837.30
2018-08-12T00:43:41.015Z,100830.30
2018-08-12T00:48:44.809Z,100831.95
2018-08-12T00:53:48.499Z,100824.45
2018-08-12T00:58:52.152Z,100830.20
2018-08-12T01:03:56.041Z,100820.81
2018-08-12T01:08:59.776Z,100819.77
2018-08-12T01:14:03.790Z,100811.31
2018-08-12T01:19:07.501Z,100814.16
2018-08-12T01:24:11.223Z,100810.05
2018-08-12T01:29:14.874Z,100810.08
2018-08-12T01:34:18.533Z,100807.30
2018-08-12T01:39:22.174Z,100803.84
2018-08-12T01:44:25.829Z,100811.23
2018-08-12T01:49:29.473Z,100807.73
2018-08-12T01:54:33.302Z,100802.08
2018-08-12T01:59:36.958Z,100799.66
2018-08-12T02:04:40.601Z,100800.92
2018-08-12T02:09:44.306Z,100801.92
2018-08-12T02:14:48.077Z,100802.91
2018-08-12T02:19:51.712Z,100797.78
2018-08-12T02:24:55.454Z,100792.52
2018-08-12T02:29:59.198Z,100800.26
2018-08-12T02:35:03.576Z,100795.87
2018-08-12T02:40:09.172Z,100793.39
2018-08-12T02:45:15.132Z,100787.30
2018-08-12T02:50:18.849Z,100784.03
2018-08-12T02:55:22.509Z,100774.94
2018-08-12T03:00:27.077Z,100775.65
2018-08-12T03:05:30.847Z,100768.05
2018-08-12T03:10:34.629Z,100765.63
2018-08-12T03:15:38.368Z,100756.61
2018-08-12T03:20:42.109Z,100753.55
2018-08-12T03:25:45.758Z,100760.30
2018-08-12T03:30:49.450Z,100745.87
2018-08-12T03:35:53.183Z,100751.28
2018-08-12T03:40:56.885Z,100749.86
2018-08-12T03:46:01.042Z,100751.30
2018-08-12T03:51:04.781Z,100745.86
2018-08-12T03:56:08.541Z,100751.39
2018-08-12T04:01:12.272Z,100748.33
2018-08-12T04:06:15.953Z,100744.91
2018-08-12T04:11:19.599Z,100743.34
2018-08-12T04:16:23.288Z,100743.34
2018-08-12T04:21:26.955Z,100742.84
2018-08-12T04:26:30.602Z,100748.36
2018-08-12T04:31:34.349Z,100741.63
2018-08-12T04:36:38.274Z,100735.15
2018-08-12T04:41:43.657Z,100740.11
2018-08-12T04:46:47.479Z,100737.16
2018-08-12T04:51:51.158Z,100738.27
2018-08-12T04:56:55.502Z,100732.39
2018-08-12T05:01:59.455Z,100723.31
2018-08-12T05:07:03.237Z,100726.23
2018-08-12T05:12:07.089Z,100729.52
2018-08-12T05:17:10.813Z,100720.48
2018-08-12T05:22:14.530Z,100724.75
2018-08-12T05:27:18.463Z,100719.95
2018-08-12T05:32:22.387Z,100723.00
2018-08-12T05:37:26.257Z,100707.56
2018-08-12T05:42:29.991Z,100707.91
2018-08-12T05:47:34.154Z,100708.63
2018-08-12T05:52:37.835Z,100701.89
2018-08-12T05:57:41.539Z,100692.45
2018-08-12T06:02:46.290Z,100692.45
2018-08-12T06:07:50.119Z,100677.69
2018-08-12T06:12:53.907Z,100682.73
2018-08-12T06:17:57.803Z,100678.75
2018-08-12T06:23:01.642Z,100672.99
2018-08-12T06:28:05.390Z,100659.70
2018-08-12T06:33:09.080Z,100661.98
2018-08-12T06:38:12.777Z,100659.15
2018-08-12T06:43:16.534Z,100660.06
2018-08-12T06:48:20.161Z,100653.70
2018-08-12T06:53:23.830Z,100657.33
2018-08-12T06:58:27.582Z,100652.51
2018-08-12T07:03:31.201Z,100653.35
2018-08-12T07:08:34.950Z,100649.24
2018-08-12T07:13:38.683Z,100650.74
2018-08-12T07:18:42.359Z,100638.34
2018-08-12T07:23:46.080Z,100633.86
2018-08-12T07:28:49.666Z,100626.63
2018-08-12T07:33:53.365Z,100631.53
2018-08-12T07:38:57.098Z,100630.06
2018-08-12T07:44:01.103Z,100629.31
2018-08-12T07:49:05.001Z,100628.66
2018-08-12T07:54:08.653Z,100625.02
2018-08-12T07:59:12.297Z,100627.08
2018-08-12T08:04:15.942Z,100619.53
2018-08-12T08:09:19.683Z,100617.30
2018-08-12T08:14:23.318Z,100617.20
2018-08-12T08:19:27.092Z,100608.17
2018-08-12T08:24:30.861Z,100612.03
2018-08-12T08:29:35.162Z,100605.38
2018-08-12T08:34:39.280Z,100593.70
2018-08-12T08:39:43.017Z,100601.12
2018-08-12T08:44:46.667Z,100596.25
2018-08-12T08:49:50.417Z,100575.34
2018-08-12T08:54:54.125Z,100577.16
2018-08-12T08:59:57.938Z,100571.37
2018-08-12T09:05:09.609Z,100568.45
2018-08-12T09:10:15.104Z,100555.56
2018-08-12T09:15:20.125Z,100552.66
2018-08-12T09:20:23.786Z,100554.83
2018-08-12T09:25:27.510Z,100545.72
2018-08-12T09:30:37.064Z,100541.32
2018-08-12T09:35:40.898Z,100541.76
2018-08-12T09:40:44.536Z,100522.63
2018-08-12T09:45:48.257Z,100522.41
2018-08-12T09:50:51.878Z,100519.23
2018-08-12T09:55:55.601Z,100514.63
2018-08-12T10:00:59.261Z,100511.69
2018-08-12T10:06:02.912Z,100491.16
2018-08-12T10:11:06.569Z,100489.40
2018-08-12T10:16:10.375Z,100483.71
2018-08-12T10:21:14.167Z,100479.38
2018-08-12T10:26:17.877Z,100475.11
2018-08-12T10:31:26.897Z,100467.55
2018-08-12T10:36:31.017Z,100465.02
2018-08-12T10:41:36.932Z,100455.52
2018-08-12T10:46:41.601Z,100434.98
2018-08-12T10:51:47.017Z,100426.03
2018-08-12T11:02:05.574Z,100414.17
2018-08-12T11:07:13.065Z,100402.08
2018-08-12T11:12:19.223Z,100400.25
2018-08-12T11:17:25.429Z,100397.33
2018-08-12T11:22:29.195Z,100393.22
2018-08-12T11:27:33.154Z,100389.67
2018-08-12T11:32:36.862Z,100372.97
2018-08-12T11:37:42.045Z,100376.22
2018-08-12T11:42:45.786Z,100368.21
2018-08-12T11:47:49.909Z,100366.48
2018-08-12T11:52:53.526Z,100358.75
2018-08-12T11:57:57.224Z,100341.20
2018-08-12T12:03:12.782Z,100336.16
2018-08-12T12:08:20.169Z,100337.70
2018-08-12T12:13:30.203Z,100329.30
2018-08-12T12:18:36.022Z,100317.15
2018-08-12T12:23:39.724Z,100318.73
2018-08-12T12:28:43.341Z,100308.55
2018-08-12T12:33:47.652Z,100306.58
2018-08-12T12:38:51.867Z,100292.92
2018-08-12T12:43:55.619Z,100294.12
2018-08-12T12:48:59.790Z,100295.66
2018-08-12T12:54:03.620Z,100283.20
2018-08-12T12:59:07.409Z,100283.28
2018-08-12T13:04:11.170Z,100268.81
2018-08-12T13:09:15.019Z,100264.86
2018-08-12T13:14:18.666Z,100249.03
2018-08-12T13:19:23.050Z,100245.05
2018-08-12T13:24:26.838Z,100244.08
2018-08-12T13:29:30.590Z,100235.70
2018-08-12T13:34:34.433Z,100220.52
2018-08-12T13:39:38.114Z,100213.95
2018-08-12T13:44:42.930Z,100209.14
2018-08-12T13:49:46.690Z,100204.27
2018-08-12T13:54:50.404Z,100205.09
2018-08-12T13:59:54.466Z,100186.77
2018-08-12T14:04:58.122Z,100171.84
2018-08-12T14:10:01.872Z,100171.22
2018-08-12T14:15:07.826Z,100161.09
2018-08-12T14:20:12.598Z,100150.38
2018-08-12T14:25:16.188Z,100132.12
2018-08-12T14:30:21.141Z,100125.52
2018-08-12T14:35:24.787Z,100124.67
2018-08-12T14:40:28.560Z,100118.70
2018-08-12T14:45:32.466Z,100109.80
2018-08-12T14:50:36.110Z,100101.19
2018-08-12T14:55:39.842Z,100095.78
2018-08-12T15:00:43.543Z,100094.09
2018-08-12T15:05:47.174Z,100086.61
2018-08-12T15:10:50.784Z,100078.72
2018-08-12T15:15:54.410Z,100075.16
2018-08-12T15:20:58.153Z,100071.40
2018-08-12T15:26:01.822Z,100072.46
2018-08-12T15:31:05.482Z,100063.84
2018-08-12T15:36:09.257Z,100061.83
2018-08-12T15:41:12.968Z,100059.62
2018-08-12T15:46:16.664Z,100051.02
2018-08-12T15:51:20.342Z,100049.66
2018-08-12T15:56:24.238Z,100039.37
2018-08-12T16:01:28.036Z,100034.47
2018-08-12T16:06:31.853Z,100020.31
2018-08-12T16:11:35.467Z,100020.31
2018-08-12T16:16:39.552Z,100021.34
2018-08-12T16:21:43.200Z,100005.63
2018-08-12T16:26:46.857Z,100001.08
2018-08-12T16:31:50.850Z,99997.19
2018-08-12T16:36:54.658Z,99991.77
2018-08-12T16:41:58.547Z,99989.41
2018-08-12T16:47:02.823Z,99986.02
2018-08-12T16:52:06.646Z,99960.22
2018-08-12T16:57:11.042Z,99963.67
2018-08-12T17:02:15.081Z,99962.42
2018-08-12T17:07:19.254Z,99959.71
2018-08-12T17:12:23.776Z,99953.96
2018-08-12T17:17:28.160Z,99951.26
2018-08-12T17:22:33.320Z,99939.89
2018-08-12T17:27:37.657Z,99942.27
2018-08-12T17:32:41.491Z,99939.09
2018-08-12T17:37:45.976Z,99933.89
2018-08-12T17:42:49.802Z,99936.94
2018-08-12T17:47:53.919Z,99931.53
2018-08-12T17:52:58.137Z,99929.67
2018-08-12T17:58:01.882Z,99923.96
2018-08-12T18:03:05.804Z,99920.58
2018-08-12T18:08:09.702Z,99921.09
2018-08-12T18:13:14.039Z,99916.19
2018-08-12T18:18:18.139Z,99920.92
2018-08-12T18:23:21.731Z,99919.10
2018-08-12T18:28:25.526Z,99915.72
2018-08-12T18:33:29.175Z,99912.17
2018-08-12T18:38:32.779Z,99911.83
2018-08-12T18:43:36.593Z,99914.54
2018-08-12T18:48:40.317Z,99913.19
2018-08-12T18:53:43.969Z,99912.52
2018-08-12T18:58:47.590Z,99916.73
2018-08-12T19:03:51.263Z,99912.34
2018-08-12T19:08:54.937Z,99912.55
2018-08-12T19:14:05.115Z,99916.27
2018-08-12T19:19:08.759Z,99915.59
2018-08-12T19:24:12.330Z,99910.98
2018-08-12T19:29:15.983Z,99907.77
2018-08-12T19:34:19.621Z,99911.66
2018-08-12T19:39:23.260Z,99912.14
2018-08-12T19:44:26.957Z,99904.36
2018-08-12T19:49:31.064Z,99906.72
2018-08-12T19:54:35.061Z,99902.83
2018-08-12T19:59:39.481Z,99906.22
2018-08-12T20:04:44.201Z,99901.23
2018-08-12T20:09:49.554Z,99908.12
2018-08-12T20:14:57.917Z,99909.84
2018-08-12T20:20:03.830Z,99913.56
2018-08-12T20:25:10.305Z,99906.42
2018-08-12T20:30:15.871Z,99904.06
2018-08-12T20:35:22.088Z,99907.10
2018-08-12T20:40:29.142Z,99897.47
2018-08-12T20:45:33.110Z,99898.31
2018-08-12T20:50:38.570Z,99893.75
2018-08-12T20:55:44.583Z,99885.42
2018-08-12T21:00:49.531Z,99884.11
2018-08-12T21:05:54.881Z,99880.22
2018-08-12T21:10:59.771Z,99874.95
2018-08-12T21:16:03.382Z,99870.55
2018-08-12T21:21:07.015Z,99869.53
2018-08-12T21:26:10.809Z,99863.79
2018-08-12T21:31:17.219Z,99861.05
2018-08-12T21:36:20.818Z,99853.61
2018-08-12T21:41:24.467Z,99853.11
2018-08-12T21:46:28.130Z,99849.55
2018-08-12T21:51:31.718Z,99844.32
2018-08-12T21:56:35.376Z,99838.41
2018-08-12T22:01:39.391Z,99835.84
2018-08-12T22:06:43.003Z,99824.00
2018-08-12T22:11:46.647Z,99823.63
2018-08-12T22:16:50.391Z,99821.44
2018-08-12T22:21:54.162Z,99818.39
2018-08-12T22:26:57.798Z,99811.47
2018-08-12T22:32:01.381Z,99813.16
2018-08-12T22:37:05.186Z,99811.13
2018-08-12T22:42:08.838Z,99806.73
2018-08-12T22:47:21.601Z,99804.03
2018-08-12T22:52:32.566Z,99796.56
2018-08-12T22:57:36.755Z,99799.47
2018-08-12T23:02:40.298Z,99793.69
2018-08-12T23:07:44.068Z,99787.95
2018-08-12T23:12:47.702Z,99786.09
2018-08-12T23:17:51.236Z,99782.38
2018-08-12T23:22:55.652Z,99777.10
2018-08-12T23:27:59.274Z,99783.18
2018-08-12T23:33:02.896Z,99778.63
2018-08-12T23:38:06.631Z,99771.70
2018-08-12T23:43:10.287Z,99772.54
2018-08-12T23:48:13.907Z,99770.01
2018-08-12T23:53:24.113Z,99767.64
2018-08-12T23:58:28.427Z,99763.42
